createdAt,value
2023-03-25T00:01:45.576Z,8.60
2023-03-25T00:04:12.300Z,8.60
2023-03-25T00:06:39.190Z,8.50
2023-03-25T00:09:06.117Z,8.60
2023-03-25T00:11:33.038Z,8.60
2023-03-25T00:14:00.472Z,8.60
2023-03-25T00:16:27.276Z,8.60
2023-03-25T00:18:54.182Z,8.70
2023-03-25T00:21:21.337Z,8.70
2023-03-25T00:23:48.122Z,8.70
2023-03-25T00:26:14.824Z,8.70
2023-03-25T00:28:41.645Z,8.80
2023-03-25T00:31:12.310Z,8.80
2023-03-25T00:33:41.689Z,8.90
2023-03-25T00:36:09.801Z,9.00
2023-03-25T00:38:37.799Z,9.00
2023-03-25T00:41:13.896Z,9.10
2023-03-25T00:43:40.910Z,9.20
2023-03-25T00:46:07.766Z,9.30
2023-03-25T00:48:34.621Z,9.20
2023-03-25T00:51:07.227Z,9.20
2023-03-25T00:53:35.334Z,9.30
2023-03-25T00:56:03.966Z,9.40
2023-03-25T00:58:30.652Z,9.30
2023-03-25T01:00:57.679Z,9.30
2023-03-25T01:03:26.560Z,9.30
2023-03-25T01:05:54.815Z,9.40
2023-03-25T01:08:25.724Z,9.40
2023-03-25T01:10:56.424Z,9.30
2023-03-25T01:13:23.807Z,9.30
2023-03-25T01:15:51.151Z,9.20
2023-03-25T01:18:18.234Z,9.20
2023-03-25T01:20:45.622Z,9.20
2023-03-25T01:23:12.386Z,9.20
2023-03-25T01:25:39.342Z,9.10
2023-03-25T01:28:06.394Z,9.00
2023-03-25T01:30:33.370Z,8.80
2023-03-25T01:33:00.252Z,8.80
2023-03-25T01:35:27.146Z,8.80
2023-03-25T01:37:54.631Z,8.70
2023-03-25T01:40:24.110Z,8.60
2023-03-25T01:42:51.453Z,8.70
2023-03-25T01:45:29.965Z,8.70
2023-03-25T01:48:12.188Z,8.70
2023-03-25T01:50:42.837Z,8.80
2023-03-25T01:53:10.200Z,8.80
2023-03-25T01:55:37.887Z,8.70
2023-03-25T01:58:11.862Z,8.80
2023-03-25T02:00:40.648Z,8.80
2023-03-25T02:03:11.375Z,8.80
2023-03-25T02:06:05.989Z,8.90
2023-03-25T02:08:37.746Z,8.90
2023-03-25T02:11:06.730Z,8.80
2023-03-25T02:13:36.559Z,8.80
2023-03-25T02:16:14.360Z,8.80
2023-03-25T02:18:56.821Z,8.70
2023-03-25T02:21:29.665Z,8.70
2023-03-25T02:24:14.510Z,8.70
2023-03-25T02:26:55.952Z,8.80
2023-03-25T02:29:53.896Z,8.80
2023-03-25T02:32:44.703Z,8.80
2023-03-25T02:35:37.805Z,8.80
2023-03-25T02:38:26.053Z,8.80
2023-03-25T02:41:01.362Z,8.80
2023-03-25T02:43:36.905Z,8.80
2023-03-25T02:46:08.820Z,8.80
2023-03-25T02:48:51.225Z,8.80
2023-03-25T02:51:23.802Z,8.80
2023-03-25T02:53:53.168Z,8.80
2023-03-25T02:56:22.942Z,8.80
2023-03-25T02:58:55.399Z,8.80
2023-03-25T03:01:26.910Z,8.80
2023-03-25T03:03:55.449Z,8.80
2023-03-25T03:06:24.207Z,8.80
2023-03-25T03:08:50.889Z,8.90
2023-03-25T03:11:22.152Z,8.80
2023-03-25T03:14:24.863Z,8.90
2023-03-25T03:17:18.382Z,8.80
2023-03-25T03:19:50.878Z,8.70
2023-03-25T03:22:37.210Z,8.70
2023-03-25T03:25:23.737Z,8.70
2023-03-25T03:28:24.687Z,8.70
2023-03-25T03:31:01.135Z,8.70
2023-03-25T03:33:39.029Z,8.70
2023-03-25T03:36:16.082Z,8.70
2023-03-25T03:38:49.688Z,8.50
2023-03-25T03:41:20.380Z,8.30
2023-03-25T03:44:04.700Z,8.10
2023-03-25T03:46:43.274Z,8.10
2023-03-25T03:49:16.252Z,8.10
2023-03-25T03:51:52.430Z,8.00
2023-03-25T03:54:29.769Z,8.00
2023-03-25T03:57:03.960Z,8.00
2023-03-25T03:59:47.753Z,8.10
2023-03-25T04:02:38.364Z,8.20
2023-03-25T04:05:08.881Z,8.30
2023-03-25T04:07:56.866Z,8.30
2023-03-25T04:10:34.677Z,8.30
2023-03-25T04:13:06.685Z,8.00
2023-03-25T04:15:33.376Z,7.90
2023-03-25T04:18:01.740Z,7.80
2023-03-25T04:20:33.954Z,7.70
2023-03-25T04:23:01.255Z,7.50
2023-03-25T04:25:29.560Z,7.40
2023-03-25T04:27:58.823Z,7.30
2023-03-25T04:30:27.816Z,7.30
2023-03-25T04:32:54.956Z,7.20
2023-03-25T04:35:21.696Z,7.20
2023-03-25T04:37:54.375Z,7.10
2023-03-25T04:40:21.026Z,7.20
2023-03-25T04:42:48.420Z,7.30
2023-03-25T04:45:16.892Z,7.30
2023-03-25T04:47:47.565Z,7.30
2023-03-25T04:50:29.682Z,7.30
2023-03-25T04:53:03.141Z,7.30
2023-03-25T04:55:29.906Z,7.30
2023-03-25T04:57:56.671Z,7.30
2023-03-25T05:01:26.787Z,7.40
2023-03-25T05:03:54.494Z,7.50
2023-03-25T05:06:21.320Z,7.50
2023-03-25T05:08:47.989Z,7.50
2023-03-25T05:11:14.649Z,7.60
2023-03-25T05:13:41.295Z,7.70
2023-03-25T05:16:08.162Z,7.60
2023-03-25T05:18:34.838Z,7.70
2023-03-25T05:21:02.899Z,7.70
2023-03-25T05:23:31.568Z,7.70
2023-03-25T05:25:58.386Z,7.70
2023-03-25T05:28:25.043Z,7.80
2023-03-25T05:30:51.850Z,7.70
2023-03-25T05:33:18.995Z,7.80
2023-03-25T05:35:46.812Z,7.80
2023-03-25T05:38:18.160Z,7.80
2023-03-25T05:40:48.921Z,7.80
2023-03-25T05:43:16.553Z,7.80
2023-03-25T05:45:45.011Z,7.80
2023-03-25T05:48:11.738Z,8.00
2023-03-25T05:50:38.535Z,8.00
2023-03-25T05:53:05.401Z,8.00
2023-03-25T05:55:32.308Z,8.00
2023-03-25T05:57:59.043Z,8.00
2023-03-25T06:00:25.710Z,8.00
2023-03-25T06:02:52.745Z,8.00
2023-03-25T06:05:23.752Z,8.00
2023-03-25T06:07:51.504Z,8.10
2023-03-25T06:10:18.708Z,8.20
2023-03-25T06:12:46.911Z,8.20
2023-03-25T06:15:17.971Z,8.40
2023-03-25T06:17:47.241Z,8.40
2023-03-25T06:20:16.271Z,8.40
2023-03-25T06:22:45.158Z,8.40
2023-03-25T06:25:17.441Z,8.40
2023-03-25T06:27:44.592Z,8.50
2023-03-25T06:30:14.566Z,8.50
2023-03-25T06:32:41.333Z,8.60
2023-03-25T06:35:09.434Z,8.50
2023-03-25T06:37:37.098Z,8.60
2023-03-25T06:40:09.040Z,8.60
2023-03-25T06:42:36.565Z,8.60
2023-03-25T06:45:29.136Z,8.60
2023-03-25T06:48:07.170Z,8.50
2023-03-25T06:50:34.227Z,8.40
2023-03-25T06:53:01.046Z,8.20
2023-03-25T06:55:27.763Z,8.00
2023-03-25T06:57:57.586Z,7.80
2023-03-25T07:00:26.816Z,7.80
2023-03-25T07:02:53.971Z,7.80
2023-03-25T07:05:21.054Z,7.70
2023-03-25T07:07:48.349Z,7.70
2023-03-25T07:10:15.279Z,7.80
2023-03-25T07:12:42.072Z,7.80
2023-03-25T07:15:09.587Z,7.90
2023-03-25T07:17:43.038Z,7.90
2023-03-25T07:20:12.552Z,8.00
2023-03-25T07:22:40.302Z,8.10
2023-03-25T07:25:07.378Z,8.30
2023-03-25T07:27:34.044Z,8.40
2023-03-25T07:30:07.283Z,8.50
2023-03-25T07:32:34.142Z,8.50
2023-03-25T07:35:00.912Z,8.40
2023-03-25T07:37:27.585Z,8.40
2023-03-25T07:39:54.267Z,8.40
2023-03-25T07:42:20.944Z,8.30
2023-03-25T07:45:07.486Z,8.40
2023-03-25T07:47:35.202Z,8.40
2023-03-25T07:50:01.906Z,8.40
2023-03-25T07:52:28.649Z,8.40
2023-03-25T07:54:55.726Z,8.40
2023-03-25T07:57:22.582Z,8.40
2023-03-25T07:59:49.266Z,8.30
2023-03-25T08:02:16.164Z,8.20
2023-03-25T08:04:43.135Z,8.00
2023-03-25T08:07:09.811Z,7.90
2023-03-25T08:09:36.462Z,7.80
2023-03-25T08:12:03.325Z,7.90
2023-03-25T08:14:30.031Z,7.90
2023-03-25T08:16:56.784Z,7.90
2023-03-25T08:19:23.480Z,8.00
2023-03-25T08:21:50.169Z,8.00
2023-03-25T08:24:17.050Z,8.10
2023-03-25T08:26:44.035Z,8.20
2023-03-25T08:29:11.242Z,8.30
2023-03-25T08:31:39.089Z,8.40
2023-03-25T08:34:06.717Z,8.30
2023-03-25T08:36:33.468Z,8.20
2023-03-25T08:39:01.415Z,8.10
2023-03-25T08:41:28.176Z,8.00
2023-03-25T08:43:54.859Z,8.00
2023-03-25T08:46:21.617Z,8.00
2023-03-25T08:48:50.103Z,8.20
2023-03-25T08:51:17.102Z,8.30
2023-03-25T08:53:43.772Z,8.40
2023-03-25T08:56:11.120Z,8.40
2023-03-25T08:58:37.864Z,8.60
2023-03-25T09:01:04.792Z,8.70
2023-03-25T09:03:31.543Z,8.90
2023-03-25T09:05:58.458Z,9.00
2023-03-25T09:08:36.845Z,9.00
2023-03-25T09:11:04.042Z,9.10
2023-03-25T09:13:30.781Z,9.10
2023-03-25T09:16:00.353Z,9.10
2023-03-25T09:18:27.183Z,9.20
2023-03-25T09:20:59.441Z,9.20
2023-03-25T09:23:26.375Z,9.30
2023-03-25T09:25:53.131Z,9.40
2023-03-25T09:28:20.309Z,9.50
2023-03-25T09:30:46.963Z,9.60
2023-03-25T09:33:14.261Z,9.60
2023-03-25T09:35:41.621Z,9.70
2023-03-25T09:38:08.450Z,9.80
2023-03-25T09:40:35.345Z,9.80
2023-03-25T09:43:20.694Z,10.00
2023-03-25T09:45:49.067Z,10.50
2023-03-25T09:48:41.770Z,10.80
2023-03-25T09:51:36.512Z,10.60
2023-03-25T09:54:24.858Z,10.80
2023-03-25T09:56:53.288Z,10.60
2023-03-25T09:59:23.444Z,10.50
2023-03-25T10:01:50.338Z,10.50
2023-03-25T10:04:22.319Z,10.60
2023-03-25T10:07:29.239Z,10.60
2023-03-25T10:10:29.788Z,10.40
2023-03-25T10:13:48.816Z,10.50
2023-03-25T10:16:32.561Z,10.50
2023-03-25T10:19:25.203Z,10.30
2023-03-25T10:21:51.904Z,10.10
2023-03-25T10:24:27.926Z,10.20
2023-03-25T10:27:00.558Z,10.10
2023-03-25T10:29:36.953Z,10.00
2023-03-25T10:32:10.942Z,9.90
2023-03-25T10:34:42.674Z,9.80
2023-03-25T10:37:13.065Z,9.90
2023-03-25T10:39:45.278Z,10.00
2023-03-25T10:42:24.556Z,10.40
2023-03-25T10:44:52.174Z,10.90
2023-03-25T10:47:33.176Z,11.10
2023-03-25T10:50:00.289Z,11.00
2023-03-25T10:52:52.719Z,10.80
2023-03-25T10:55:31.463Z,10.20
2023-03-25T10:57:58.393Z,9.90
2023-03-25T11:00:26.487Z,9.60
2023-03-25T11:02:55.025Z,10.00
2023-03-25T11:05:25.796Z,10.10
2023-03-25T11:08:08.738Z,10.20
2023-03-25T11:10:38.748Z,10.70
2023-03-25T11:13:13.063Z,11.10
2023-03-25T11:15:41.135Z,11.40
2023-03-25T11:18:28.399Z,11.20
2023-03-25T11:21:04.678Z,11.00
2023-03-25T11:23:37.207Z,11.20
2023-03-25T11:26:23.509Z,11.60
2023-03-25T11:28:56.713Z,11.90
2023-03-25T11:31:28.369Z,12.10
2023-03-25T11:34:09.188Z,12.30
2023-03-25T11:36:47.022Z,11.70
2023-03-25T11:39:18.443Z,11.80
2023-03-25T11:41:45.762Z,12.10
2023-03-25T11:44:26.213Z,12.60
2023-03-25T11:47:00.530Z,12.70
2023-03-25T11:49:29.736Z,12.20
2023-03-25T11:52:03.305Z,11.70
2023-03-25T11:54:30.697Z,11.20
2023-03-25T11:56:57.502Z,10.90
2023-03-25T11:59:38.890Z,11.40
2023-03-25T12:02:24.495Z,11.50
2023-03-25T12:05:12.259Z,11.50
2023-03-25T12:07:50.723Z,11.60
2023-03-25T12:10:34.963Z,11.60
2023-03-25T12:13:12.455Z,11.90
2023-03-25T12:15:47.955Z,12.10
2023-03-25T12:18:52.275Z,12.20
2023-03-25T12:21:38.765Z,11.40
2023-03-25T12:24:43.210Z,11.60
2023-03-25T12:27:37.374Z,12.20
2023-03-25T12:30:54.859Z,12.00
2023-03-25T12:33:33.834Z,11.60
2023-03-25T12:36:04.442Z,11.40
2023-03-25T12:38:50.184Z,11.30
2023-03-25T12:41:41.690Z,11.10
2023-03-25T12:44:40.493Z,11.00
2023-03-25T12:47:16.287Z,10.80
2023-03-25T12:50:04.238Z,10.80
2023-03-25T12:52:57.508Z,10.90
2023-03-25T12:55:56.757Z,10.70
2023-03-25T12:58:45.630Z,10.50
2023-03-25T13:01:21.510Z,9.90
2023-03-25T13:04:04.838Z,9.50
2023-03-25T13:06:31.504Z,9.20
2023-03-25T13:09:01.101Z,9.10
2023-03-25T13:11:41.254Z,8.80
2023-03-25T13:14:24.686Z,8.60
2023-03-25T13:16:55.676Z,8.80
2023-03-25T13:19:28.586Z,9.00
2023-03-25T13:22:00.155Z,9.10
2023-03-25T13:24:39.184Z,9.20
2023-03-25T13:27:07.736Z,9.30
2023-03-25T13:29:41.792Z,9.50
2023-03-25T13:32:17.244Z,9.60
2023-03-25T13:34:51.348Z,9.70
2023-03-25T13:37:24.156Z,9.40
2023-03-25T13:40:24.402Z,9.30
2023-03-25T13:43:56.152Z,9.30
2023-03-25T13:46:46.753Z,9.20
2023-03-25T13:49:26.090Z,9.20
2023-03-25T13:51:53.482Z,9.20
2023-03-25T13:54:35.387Z,9.20
2023-03-25T13:57:24.740Z,9.30
2023-03-25T14:00:27.075Z,9.40
2023-03-25T14:03:18.596Z,9.40
2023-03-25T14:05:52.595Z,9.30
2023-03-25T14:08:31.932Z,9.20
2023-03-25T14:11:17.582Z,9.10
2023-03-25T14:14:01.292Z,9.00
2023-03-25T14:16:35.456Z,9.00
2023-03-25T14:19:07.046Z,8.90
2023-03-25T14:21:43.138Z,8.90
2023-03-25T14:24:36.715Z,8.70
2023-03-25T14:27:32.313Z,8.70
2023-03-25T14:30:22.287Z,8.50
2023-03-25T14:32:57.040Z,8.40
2023-03-25T14:35:32.508Z,8.30
2023-03-25T14:38:12.495Z,8.10
2023-03-25T14:40:59.155Z,7.90
2023-03-25T14:43:40.938Z,8.00
2023-03-25T14:46:10.781Z,8.00
2023-03-25T14:48:45.618Z,8.30
2023-03-25T14:51:50.811Z,8.50
2023-03-25T14:54:33.676Z,8.70
2023-03-25T14:57:24.866Z,8.80
2023-03-25T15:00:01.205Z,8.80
2023-03-25T15:02:32.996Z,8.90
2023-03-25T15:05:20.296Z,8.80
2023-03-25T15:08:06.685Z,8.80
2023-03-25T15:10:42.199Z,8.80
2023-03-25T15:13:25.632Z,8.60
2023-03-25T15:16:27.058Z,8.30
2023-03-25T15:18:53.727Z,8.20
2023-03-25T15:21:24.982Z,8.20
2023-03-25T15:24:10.280Z,8.10
2023-03-25T15:26:45.383Z,8.20
2023-03-25T15:29:31.504Z,8.20
2023-03-25T15:32:23.293Z,8.30
2023-03-25T15:35:08.957Z,8.40
2023-03-25T15:38:04.480Z,8.70
2023-03-25T15:41:10.395Z,9.00
2023-03-25T15:44:01.225Z,9.10
2023-03-25T15:46:46.695Z,9.20
2023-03-25T15:53:43.145Z,9.40
2023-03-25T15:56:21.152Z,9.40
2023-03-25T15:59:06.501Z,9.40
2023-03-25T16:01:44.749Z,9.40
2023-03-25T16:04:19.043Z,9.40
2023-03-25T16:06:49.405Z,9.70
2023-03-25T16:12:00.526Z,9.40
2023-03-25T16:14:50.472Z,9.40
2023-03-25T16:17:31.742Z,9.50
2023-03-25T16:20:32.125Z,9.70
2023-03-25T16:23:00.867Z,9.70
2023-03-25T16:25:37.709Z,9.60
2023-03-25T16:28:07.779Z,9.40
2023-03-25T16:30:40.193Z,9.50
2023-03-25T16:33:07.112Z,9.40
2023-03-25T16:35:42.478Z,9.40
2023-03-25T16:38:19.006Z,9.30
2023-03-25T16:40:49.820Z,9.30
2023-03-25T16:43:22.130Z,9.30
2023-03-25T16:45:51.579Z,9.30
2023-03-25T16:48:33.501Z,9.20
2023-03-25T16:51:40.224Z,9.20
2023-03-25T16:54:19.413Z,9.20
2023-03-25T16:57:11.962Z,9.30
2023-03-25T16:59:38.772Z,9.30
2023-03-25T17:02:24.244Z,9.30
2023-03-25T17:04:51.059Z,9.30
2023-03-25T17:07:20.750Z,9.30
2023-03-25T17:09:52.704Z,9.20
2023-03-25T17:12:21.817Z,9.10
2023-03-25T17:14:52.496Z,9.10
2023-03-25T17:17:43.652Z,9.10
2023-03-25T17:20:26.790Z,9.10
2023-03-25T17:23:34.406Z,9.10
2023-03-25T17:26:14.943Z,9.10
2023-03-25T17:29:06.325Z,9.10
2023-03-25T17:31:40.087Z,9.10
2023-03-25T17:34:41.033Z,9.10
2023-03-25T17:37:13.679Z,9.10
2023-03-25T17:39:43.069Z,9.10
2023-03-25T17:42:37.926Z,9.10
2023-03-25T17:45:15.429Z,9.10
2023-03-25T17:47:42.574Z,9.00
2023-03-25T17:50:22.179Z,9.00
2023-03-25T17:52:52.113Z,8.90
2023-03-25T17:55:19.058Z,8.70
2023-03-25T17:57:46.535Z,8.50
2023-03-25T18:00:19.446Z,8.20
2023-03-25T18:02:48.497Z,8.00
2023-03-25T18:05:15.566Z,7.90
2023-03-25T18:07:43.017Z,7.80
2023-03-25T18:10:23.751Z,7.60
2023-03-25T18:12:52.388Z,7.50
2023-03-25T18:15:23.334Z,7.50
2023-03-25T18:17:53.131Z,7.40
2023-03-25T18:20:26.342Z,7.30
2023-03-25T18:22:55.682Z,7.30
2023-03-25T18:25:30.860Z,7.40
2023-03-25T18:28:00.839Z,7.40
2023-03-25T18:30:54.459Z,7.30
2023-03-25T18:33:25.144Z,7.20
2023-03-25T18:35:52.703Z,7.10
2023-03-25T18:38:24.733Z,7.10
2023-03-25T18:40:52.801Z,7.20
2023-03-25T18:43:22.956Z,7.10
2023-03-25T18:45:50.267Z,7.10
2023-03-25T18:48:30.694Z,7.10
2023-03-25T18:51:00.034Z,7.10
2023-03-25T18:53:31.410Z,7.10
2023-03-25T18:56:09.706Z,7.00
2023-03-25T18:58:37.016Z,7.00
2023-03-25T19:01:11.107Z,7.20
2023-03-25T19:03:41.281Z,7.20
2023-03-25T19:07:00.603Z,7.30
2023-03-25T19:09:27.364Z,7.40
2023-03-25T19:11:54.164Z,7.40
2023-03-25T19:14:54.439Z,7.40
2023-03-25T19:17:21.695Z,7.40
2023-03-25T19:19:49.552Z,7.30
2023-03-25T19:22:17.036Z,7.30
2023-03-25T19:24:44.282Z,7.40
2023-03-25T19:27:12.042Z,7.40
2023-03-25T19:29:42.003Z,7.40
2023-03-25T19:32:34.806Z,7.40
2023-03-25T19:35:03.317Z,7.40
2023-03-25T19:37:57.873Z,7.50
2023-03-25T19:40:34.170Z,7.60
2023-03-25T19:43:03.029Z,7.60
2023-03-25T19:45:36.698Z,7.60
2023-03-25T19:48:04.858Z,7.50
2023-03-25T19:50:34.400Z,7.50
2023-03-25T19:53:29.602Z,7.60
2023-03-25T19:56:04.773Z,7.50
2023-03-25T19:58:34.460Z,7.50
2023-03-25T20:01:01.337Z,7.50
2023-03-25T20:03:32.193Z,7.40
2023-03-25T20:06:03.423Z,7.40
2023-03-25T20:08:30.704Z,7.30
2023-03-25T20:11:11.945Z,7.40
2023-03-25T20:14:06.325Z,7.40
2023-03-25T20:16:34.793Z,7.40
2023-03-25T20:19:04.316Z,7.50
2023-03-25T20:21:31.065Z,7.50
2023-03-25T20:24:19.372Z,7.50
2023-03-25T20:26:46.076Z,7.60
2023-03-25T20:29:12.834Z,7.60
2023-03-25T20:31:39.637Z,7.60
2023-03-25T20:34:07.094Z,7.70
2023-03-25T20:36:34.700Z,7.70
2023-03-25T20:39:08.848Z,7.70
2023-03-25T20:41:38.125Z,7.70
2023-03-25T20:44:06.776Z,7.70
2023-03-25T20:46:33.580Z,7.70
2023-03-25T20:49:08.262Z,7.70
2023-03-25T20:51:37.022Z,7.70
2023-03-25T20:54:04.572Z,7.60
2023-03-25T20:56:35.796Z,7.50
2023-03-25T20:59:03.487Z,7.40
2023-03-25T21:01:30.214Z,7.40
2023-03-25T21:03:58.559Z,7.40
2023-03-25T21:06:28.252Z,7.40
2023-03-25T21:09:09.717Z,7.50
2023-03-25T21:11:37.791Z,7.50
2023-03-25T21:14:05.485Z,7.60
2023-03-25T21:16:34.544Z,7.60
2023-03-25T21:19:02.199Z,7.70
2023-03-25T21:21:32.430Z,7.70
2023-03-25T21:23:59.149Z,7.70
2023-03-25T21:26:25.885Z,7.70
2023-03-25T21:28:53.201Z,7.70
2023-03-25T21:31:22.858Z,7.80
2023-03-25T21:33:53.800Z,7.70
2023-03-25T21:36:33.067Z,7.60
2023-03-25T21:39:06.309Z,7.60
2023-03-25T21:41:33.731Z,7.50
2023-03-25T21:44:05.288Z,7.60
2023-03-25T21:46:33.466Z,7.70
2023-03-25T21:49:02.254Z,7.70
2023-03-25T21:51:32.381Z,7.80
2023-03-25T21:54:00.391Z,7.80
2023-03-25T21:59:22.857Z,7.90
2023-03-25T22:01:52.680Z,7.80
2023-03-25T22:04:22.877Z,7.80
2023-03-25T22:06:56.714Z,7.90
2023-03-25T22:09:23.732Z,7.80
2023-03-25T22:11:51.254Z,7.80
2023-03-25T22:14:25.140Z,7.90
2023-03-25T22:16:53.715Z,7.90
2023-03-25T22:19:24.044Z,7.90
2023-03-25T22:21:51.453Z,7.80
2023-03-25T22:24:18.214Z,7.80
2023-03-25T22:26:44.909Z,7.80
2023-03-25T22:29:14.407Z,7.80
2023-03-25T22:31:44.160Z,7.80
2023-03-25T22:34:15.266Z,7.80
2023-03-25T22:36:49.915Z,7.80
2023-03-25T22:39:34.367Z,7.70
2023-03-25T22:42:02.658Z,7.70
2023-03-25T22:44:29.781Z,7.70
2023-03-25T22:46:56.581Z,7.70
2023-03-25T22:49:23.325Z,7.70
2023-03-25T22:51:55.400Z,7.70
2023-03-25T22:54:22.913Z,7.70
2023-03-25T22:56:52.720Z,7.70
2023-03-25T22:59:19.936Z,7.70
2023-03-25T23:02:14.264Z,7.70
2023-03-25T23:04:41.311Z,7.70
2023-03-25T23:07:14.561Z,7.70
2023-03-25T23:09:42.640Z,7.70
2023-03-25T23:12:14.157Z,7.70
2023-03-25T23:14:47.851Z,7.70
2023-03-25T23:17:14.804Z,7.80
2023-03-25T23:19:53.762Z,7.80
2023-03-25T23:22:21.337Z,7.70
2023-03-25T23:24:48.120Z,7.80
2023-03-25T23:27:15.224Z,7.80
2023-03-25T23:29:54.385Z,7.70
2023-03-25T23:32:21.232Z,7.80
2023-03-25T23:34:48.493Z,7.80
2023-03-25T23:37:15.289Z,7.70
2023-03-25T23:39:41.997Z,7.60
2023-03-25T23:42:09.327Z,7.60
2023-03-25T23:44:36.012Z,7.50
2023-03-25T23:47:03.585Z,7.50
2023-03-25T23:49:33.190Z,7.40
2023-03-25T23:52:02.566Z,7.50
2023-03-25T23:54:29.194Z,7.50
2023-03-25T23:56:56.103Z,7.50
2023-03-25T23:59:22.972Z,7.50
